createdAt,value
2018-08-16T00:01:52.338Z,19.70
2018-08-16T00:06:55.469Z,19.70
2018-08-16T00:11:58.573Z,19.70
2018-08-16T00:17:01.720Z,19.70
2018-08-16T00:22:04.885Z,19.60
2018-08-16T00:27:08.034Z,19.60
2018-08-16T00:32:11.175Z,19.50
2018-08-16T00:37:14.333Z,19.50
2018-08-16T00:42:17.460Z,19.50
2018-08-16T00:47:20.597Z,19.40
2018-08-16T00:52:23.740Z,19.30
2018-08-16T00:57:26.889Z,19.30
2018-08-16T01:02:30.045Z,19.30
2018-08-16T01:07:33.176Z,19.20
2018-08-16T01:12:36.279Z,19.20
2018-08-16T01:17:39.642Z,19.20
2018-08-16T01:22:42.932Z,19.10
2018-08-16T01:27:46.059Z,19.10
2018-08-16T01:32:49.189Z,19.10
2018-08-16T01:37:52.332Z,19.00
2018-08-16T01:42:55.553Z,18.90
2018-08-16T01:47:58.717Z,18.90
2018-08-16T01:53:01.921Z,18.80
2018-08-16T01:58:05.181Z,18.80
2018-08-16T02:03:08.333Z,18.80
2018-08-16T02:08:11.445Z,18.70
2018-08-16T02:13:14.610Z,18.70
2018-08-16T02:18:17.791Z,18.60
2018-08-16T02:23:20.953Z,18.60
2018-08-16T02:28:24.135Z,18.50
2018-08-16T02:33:27.440Z,18.40
2018-08-16T02:38:30.601Z,18.40
2018-08-16T02:43:33.744Z,18.40
2018-08-16T02:48:36.996Z,18.30
2018-08-16T02:53:40.134Z,18.30
2018-08-16T02:58:43.287Z,18.30
2018-08-16T03:03:46.534Z,18.30
2018-08-16T03:08:49.785Z,18.30
2018-08-16T03:13:53.009Z,18.20
2018-08-16T03:18:56.219Z,18.20
2018-08-16T03:23:59.376Z,18.20
2018-08-16T03:29:02.585Z,18.10
2018-08-16T03:34:06.049Z,18.10
2018-08-16T03:39:09.759Z,18.10
2018-08-16T03:44:13.063Z,18.00
2018-08-16T03:49:16.416Z,18.00
2018-08-16T03:54:19.786Z,17.90
2018-08-16T03:59:23.156Z,17.90
2018-08-16T04:04:26.477Z,17.90
2018-08-16T04:09:29.704Z,17.90
2018-08-16T04:14:33.009Z,17.90
2018-08-16T04:19:36.272Z,17.80
2018-08-16T04:24:39.555Z,17.80
2018-08-16T04:29:42.885Z,17.80
2018-08-16T04:34:46.383Z,17.80
2018-08-16T04:39:49.666Z,17.70
2018-08-16T04:44:52.973Z,17.70
2018-08-16T04:49:56.298Z,17.70
2018-08-16T04:54:59.545Z,17.70
2018-08-16T05:00:02.832Z,17.70
2018-08-16T05:05:06.266Z,17.70
2018-08-16T05:10:10.645Z,17.60
2018-08-16T05:15:13.976Z,17.60
2018-08-16T05:20:17.244Z,17.60
2018-08-16T05:25:20.505Z,17.60
2018-08-16T05:30:23.750Z,17.60
2018-08-16T05:35:27.385Z,17.70
2018-08-16T05:40:31.093Z,17.80
2018-08-16T05:45:35.246Z,17.80
2018-08-16T05:50:38.625Z,17.90
2018-08-16T05:55:41.918Z,18.00
2018-08-16T06:00:45.251Z,18.10
2018-08-16T06:05:48.512Z,18.10
2018-08-16T06:10:51.846Z,18.30
2018-08-16T06:15:55.131Z,18.50
2018-08-16T06:20:58.393Z,18.60
2018-08-16T06:26:01.700Z,18.80
2018-08-16T06:31:05.023Z,18.90
2018-08-16T06:36:08.291Z,19.00
2018-08-16T06:41:11.480Z,19.20
2018-08-16T06:46:14.824Z,19.50
2018-08-16T06:51:18.086Z,19.70
2018-08-16T06:56:21.341Z,20.00
2018-08-16T07:01:24.579Z,20.20
2018-08-16T07:06:27.955Z,20.50
2018-08-16T07:11:31.126Z,20.70
2018-08-16T07:16:34.329Z,21.00
2018-08-16T07:21:37.605Z,21.20
2018-08-16T07:26:40.813Z,21.50
2018-08-16T07:31:44.014Z,21.70
2018-08-16T07:36:47.330Z,21.90
2018-08-16T07:41:50.616Z,22.20
2018-08-16T07:46:53.805Z,22.40
2018-08-16T07:51:57.056Z,22.70
2018-08-16T07:57:00.241Z,22.90
2018-08-16T08:02:03.870Z,23.10
2018-08-16T08:07:07.829Z,23.30
2018-08-16T08:12:11.028Z,23.50
2018-08-16T08:17:14.195Z,23.80
2018-08-16T08:22:17.337Z,24.00
2018-08-16T08:27:20.509Z,24.20
2018-08-16T08:32:23.657Z,24.50
2018-08-16T08:38:10.403Z,24.70
2018-08-16T08:43:24.553Z,24.90
2018-08-16T08:48:27.762Z,25.10
2018-08-16T08:54:46.193Z,25.20
2018-08-16T08:59:49.366Z,25.50
2018-08-16T09:04:52.547Z,25.70
2018-08-16T09:11:13.376Z,25.80
2018-08-16T09:16:18.842Z,26.10
2018-08-16T09:21:22.022Z,26.30
2018-08-16T09:26:30.551Z,26.60
2018-08-16T09:31:45.322Z,26.80
2018-08-16T09:36:48.624Z,27.10
2018-08-16T09:41:51.762Z,27.30
2018-08-16T09:47:10.854Z,27.50
2018-08-16T09:52:14.686Z,27.70
2018-08-16T09:57:18.201Z,27.90
2018-08-16T10:02:21.351Z,28.00
2018-08-16T10:07:24.463Z,28.10
2018-08-16T10:12:27.630Z,28.30
2018-08-16T10:17:30.842Z,28.40
2018-08-16T10:22:34.022Z,28.50
2018-08-16T10:27:37.173Z,28.70
2018-08-16T10:32:40.354Z,28.90
2018-08-16T10:37:43.560Z,29.10
2018-08-16T10:42:46.953Z,29.30
2018-08-16T10:47:50.102Z,29.60
2018-08-16T10:52:53.235Z,29.70
2018-08-16T10:57:56.404Z,29.90
2018-08-16T11:02:59.560Z,30.10
2018-08-16T11:08:02.863Z,30.30
2018-08-16T11:13:06.465Z,30.40
2018-08-16T11:18:10.122Z,30.50
2018-08-16T11:23:13.390Z,30.60
2018-08-16T11:28:16.850Z,30.70
2018-08-16T11:33:20.001Z,30.80
2018-08-16T11:38:23.215Z,31.00
2018-08-16T11:43:26.353Z,31.20
2018-08-16T11:48:29.610Z,31.40
2018-08-16T11:53:32.832Z,31.60
2018-08-16T11:58:36.072Z,31.80
2018-08-16T12:03:39.209Z,31.80
2018-08-16T12:08:42.469Z,31.90
2018-08-16T12:13:45.661Z,32.00
2018-08-16T12:18:48.848Z,32.20
2018-08-16T12:23:52.074Z,32.30
2018-08-16T12:28:55.284Z,32.50
2018-08-16T12:33:58.534Z,32.70
2018-08-16T12:39:01.746Z,32.90
2018-08-16T12:44:05.031Z,33.10
2018-08-16T12:49:08.240Z,33.20
2018-08-16T12:54:11.503Z,33.20
2018-08-16T12:59:14.702Z,33.30
2018-08-16T13:04:17.894Z,33.50
2018-08-16T13:09:21.094Z,33.70
2018-08-16T13:14:24.290Z,33.80
2018-08-16T13:19:27.536Z,33.80
2018-08-16T13:24:30.750Z,33.80
2018-08-16T13:29:34.013Z,33.90
2018-08-16T13:34:37.290Z,34.00
2018-08-16T13:39:40.506Z,34.20
2018-08-16T13:44:43.737Z,34.40
2018-08-16T13:49:47.485Z,34.60
2018-08-16T13:54:50.746Z,34.80
2018-08-16T13:59:53.902Z,34.90
2018-08-16T14:04:57.126Z,35.00
2018-08-16T14:10:00.470Z,35.00
2018-08-16T14:15:04.098Z,35.10
2018-08-16T14:20:08.045Z,35.30
2018-08-16T14:25:11.308Z,35.40
2018-08-16T14:30:14.551Z,35.60
2018-08-16T14:35:17.882Z,35.80
2018-08-16T14:40:21.742Z,35.80
2018-08-16T14:45:25.265Z,35.80
2018-08-16T14:50:28.715Z,35.90
2018-08-16T14:55:31.971Z,36.00
2018-08-16T15:00:35.567Z,36.20
2018-08-16T15:05:39.886Z,36.20
2018-08-16T15:10:43.534Z,36.30
2018-08-16T15:15:47.602Z,36.40
2018-08-16T15:20:51.528Z,36.40
2018-08-16T15:25:55.636Z,36.40
2018-08-16T15:31:00.293Z,36.50
2018-08-16T15:36:04.851Z,36.60
2018-08-16T15:41:09.028Z,36.60
2018-08-16T15:46:13.266Z,36.70
2018-08-16T15:51:17.068Z,36.60
2018-08-16T15:56:20.676Z,36.60
2018-08-16T16:01:24.165Z,36.60
2018-08-16T16:06:27.989Z,36.60
2018-08-16T16:11:31.237Z,36.60
2018-08-16T16:16:34.573Z,36.60
2018-08-16T16:21:37.717Z,36.60
2018-08-16T16:26:41.129Z,36.60
2018-08-16T16:31:45.224Z,36.60
2018-08-16T16:36:48.369Z,36.60
2018-08-16T16:41:51.697Z,36.70
2018-08-16T16:46:54.914Z,36.70
2018-08-16T16:51:58.114Z,36.80
2018-08-16T16:57:01.512Z,36.80
2018-08-16T17:02:04.807Z,36.80
2018-08-16T17:07:08.061Z,36.70
2018-08-16T17:12:11.317Z,36.60
2018-08-16T17:17:14.553Z,36.40
2018-08-16T17:22:17.892Z,36.20
2018-08-16T17:27:21.183Z,36.10
2018-08-16T17:32:24.430Z,35.90
2018-08-16T17:37:27.657Z,35.80
2018-08-16T17:42:30.901Z,35.60
2018-08-16T17:47:34.155Z,35.40
2018-08-16T17:52:37.523Z,35.30
2018-08-16T17:57:47.196Z,35.00
2018-08-16T18:02:50.382Z,34.80
2018-08-16T18:07:53.662Z,34.60
2018-08-16T18:12:56.850Z,34.40
2018-08-16T18:18:00.034Z,34.10
2018-08-16T18:23:03.325Z,33.80
2018-08-16T18:28:06.661Z,33.40
2018-08-16T18:33:09.978Z,33.10
2018-08-16T18:38:13.162Z,32.70
2018-08-16T18:43:16.365Z,32.40
2018-08-16T18:48:19.521Z,32.10
2018-08-16T18:53:25.428Z,31.90
2018-08-16T18:58:28.782Z,31.60
2018-08-16T19:03:32.270Z,31.40
2018-08-16T19:08:35.949Z,31.10
2018-08-16T19:13:39.348Z,30.90
2018-08-16T19:18:42.768Z,30.60
2018-08-16T19:23:45.937Z,30.50
2018-08-16T19:28:49.301Z,30.20
2018-08-16T19:33:52.747Z,29.90
2018-08-16T19:38:56.227Z,29.80
2018-08-16T19:43:59.572Z,29.50
2018-08-16T19:49:02.900Z,29.30
2018-08-16T19:54:06.236Z,29.10
2018-08-16T19:59:09.566Z,28.90
2018-08-16T20:04:12.921Z,28.60
2018-08-16T20:09:16.293Z,28.50
2018-08-16T20:14:19.667Z,28.30
2018-08-16T20:19:23.077Z,28.10
2018-08-16T20:24:26.446Z,27.90
2018-08-16T20:29:29.749Z,27.80
2018-08-16T20:34:33.165Z,27.60
2018-08-16T20:39:36.472Z,27.40
2018-08-16T20:44:39.838Z,27.20
2018-08-16T20:49:43.274Z,27.00
2018-08-16T20:54:46.662Z,26.90
2018-08-16T20:59:49.999Z,26.80
2018-08-16T21:04:54.365Z,26.70
2018-08-16T21:09:57.700Z,26.60
2018-08-16T21:15:31.521Z,26.40
